sensor_id;sensor_type;location;lat;lon;timestamp;P1;durP1;ratioP1;P2;durP2;ratioP2
31442;SDS011;18065;55.876;9.830;2022-12-17T00:01:27;10.45;;;6.40;;
31442;SDS011;18065;55.876;9.830;2022-12-17T00:06:54;8.63;;;5.68;;
31442;SDS011;18065;55.876;9.830;2022-12-17T00:09:35;9.25;;;6.32;;
31442;SDS011;18065;55.876;9.830;2022-12-17T00:12:16;10.18;;;6.30;;
31442;SDS011;18065;55.876;9.830;2022-12-17T00:14:57;8.27;;;5.82;;
31442;SDS011;18065;55.876;9.830;2022-12-17T00:17:38;7.72;;;5.95;;
31442;SDS011;18065;55.876;9.830;2022-12-17T00:20:19;8.88;;;6.15;;
31442;SDS011;18065;55.876;9.830;2022-12-17T00:23:03;7.47;;;5.72;;
31442;SDS011;18065;55.876;9.830;2022-12-17T00:25:48;8.13;;;5.80;;
31442;SDS011;18065;55.876;9.830;2022-12-17T00:28:29;8.35;;;5.97;;
31442;SDS011;18065;55.876;9.830;2022-12-17T00:31:10;12.02;;;6.07;;
31442;SDS011;18065;55.876;9.830;2022-12-17T00:33:51;11.50;;;6.10;;
31442;SDS011;18065;55.876;9.830;2022-12-17T00:36:32;8.38;;;6.00;;
31442;SDS011;18065;55.876;9.830;2022-12-17T00:39:16;10.40;;;6.40;;
31442;SDS011;18065;55.876;9.830;2022-12-17T00:41:57;9.23;;;6.03;;
31442;SDS011;18065;55.876;9.830;2022-12-17T00:44:38;8.82;;;5.78;;
31442;SDS011;18065;55.876;9.830;2022-12-17T00:47:19;8.25;;;5.35;;
31442;SDS011;18065;55.876;9.830;2022-12-17T00:50:00;9.45;;;6.35;;
31442;SDS011;18065;55.876;9.830;2022-12-17T00:55:27;9.65;;;5.88;;
31442;SDS011;18065;55.876;9.830;2022-12-17T00:58:20;7.47;;;5.55;;
31442;SDS011;18065;55.876;9.830;2022-12-17T01:01:01;8.65;;;5.90;;
31442;SDS011;18065;55.876;9.830;2022-12-17T01:03:51;10.13;;;5.90;;
31442;SDS011;18065;55.876;9.830;2022-12-17T01:06:32;8.68;;;6.22;;
31442;SDS011;18065;55.876;9.830;2022-12-17T01:09:13;10.30;;;5.88;;
31442;SDS011;18065;55.876;9.830;2022-12-17T01:11:57;8.98;;;5.97;;
31442;SDS011;18065;55.876;9.830;2022-12-17T01:14:38;8.07;;;5.68;;
31442;SDS011;18065;55.876;9.830;2022-12-17T01:17:19;8.30;;;5.50;;
31442;SDS011;18065;55.876;9.830;2022-12-17T01:20:00;7.65;;;5.03;;
31442;SDS011;18065;55.876;9.830;2022-12-17T01:22:41;8.20;;;5.55;;
31442;SDS011;18065;55.876;9.830;2022-12-17T01:25:22;9.02;;;6.18;;
31442;SDS011;18065;55.876;9.830;2022-12-17T01:28:05;7.82;;;5.25;;
31442;SDS011;18065;55.876;9.830;2022-12-17T01:31:01;8.00;;;5.63;;
31442;SDS011;18065;55.876;9.830;2022-12-17T01:33:42;9.93;;;6.07;;
31442;SDS011;18065;55.876;9.830;2022-12-17T01:36:23;9.07;;;5.72;;
31442;SDS011;18065;55.876;9.830;2022-12-17T01:39:04;6.65;;;5.15;;
31442;SDS011;18065;55.876;9.830;2022-12-17T01:41:45;8.30;;;6.03;;
31442;SDS011;18065;55.876;9.830;2022-12-17T01:47:34;8.88;;;5.80;;
31442;SDS011;18065;55.876;9.830;2022-12-17T01:50:18;8.27;;;5.75;;
31442;SDS011;18065;55.876;9.830;2022-12-17T01:53:01;7.83;;;5.67;;
31442;SDS011;18065;55.876;9.830;2022-12-17T01:55:45;7.78;;;5.43;;
31442;SDS011;18065;55.876;9.830;2022-12-17T01:58:28;7.72;;;5.25;;
31442;SDS011;18065;55.876;9.830;2022-12-17T02:01:12;9.25;;;5.18;;
31442;SDS011;18065;55.876;9.830;2022-12-17T02:03:53;8.52;;;5.57;;
31442;SDS011;18065;55.876;9.830;2022-12-17T02:06:34;7.43;;;5.38;;
31442;SDS011;18065;55.876;9.830;2022-12-17T02:09:37;8.95;;;5.50;;
31442;SDS011;18065;55.876;9.830;2022-12-17T02:12:26;7.53;;;5.82;;
31442;SDS011;18065;55.876;9.830;2022-12-17T02:15:16;9.55;;;5.80;;
31442;SDS011;18065;55.876;9.830;2022-12-17T02:18:04;8.60;;;5.78;;
31442;SDS011;18065;55.876;9.830;2022-12-17T02:20:48;7.90;;;5.97;;
31442;SDS011;18065;55.876;9.830;2022-12-17T02:23:34;7.55;;;5.63;;
31442;SDS011;18065;55.876;9.830;2022-12-17T02:26:31;7.78;;;5.28;;
31442;SDS011;18065;55.876;9.830;2022-12-17T02:29:14;8.27;;;5.43;;
31442;SDS011;18065;55.876;9.830;2022-12-17T02:31:57;8.60;;;5.43;;
31442;SDS011;18065;55.876;9.830;2022-12-17T02:34:44;8.20;;;5.80;;
31442;SDS011;18065;55.876;9.830;2022-12-17T02:37:26;8.60;;;5.03;;
31442;SDS011;18065;55.876;9.830;2022-12-17T02:40:07;7.07;;;5.90;;
31442;SDS011;18065;55.876;9.830;2022-12-17T02:42:52;8.02;;;5.30;;
31442;SDS011;18065;55.876;9.830;2022-12-17T02:45:33;6.88;;;5.18;;
31442;SDS011;18065;55.876;9.830;2022-12-17T02:48:14;6.32;;;4.95;;
31442;SDS011;18065;55.876;9.830;2022-12-17T02:50:56;6.88;;;5.07;;
31442;SDS011;18065;55.876;9.830;2022-12-17T02:53:41;6.82;;;5.28;;
31442;SDS011;18065;55.876;9.830;2022-12-17T02:56:25;7.38;;;5.40;;
31442;SDS011;18065;55.876;9.830;2022-12-17T02:59:09;6.53;;;5.30;;
31442;SDS011;18065;55.876;9.830;2022-12-17T03:01:50;6.75;;;5.00;;
31442;SDS011;18065;55.876;9.830;2022-12-17T03:04:31;7.32;;;4.88;;
31442;SDS011;18065;55.876;9.830;2022-12-17T03:07:12;6.70;;;4.90;;
31442;SDS011;18065;55.876;9.830;2022-12-17T03:09:53;5.75;;;4.75;;
31442;SDS011;18065;55.876;9.830;2022-12-17T03:12:34;7.93;;;4.88;;
31442;SDS011;18065;55.876;9.830;2022-12-17T03:15:18;7.32;;;5.03;;
31442;SDS011;18065;55.876;9.830;2022-12-17T03:17:59;7.95;;;5.05;;
31442;SDS011;18065;55.876;9.830;2022-12-17T03:20:40;6.22;;;4.85;;
31442;SDS011;18065;55.876;9.830;2022-12-17T03:23:33;8.07;;;4.78;;
31442;SDS011;18065;55.876;9.830;2022-12-17T03:26:14;6.45;;;4.88;;
31442;SDS011;18065;55.876;9.830;2022-12-17T03:28:55;6.75;;;4.53;;
31442;SDS011;18065;55.876;9.830;2022-12-17T03:34:25;5.78;;;4.40;;
31442;SDS011;18065;55.876;9.830;2022-12-17T03:37:06;6.50;;;4.78;;
31442;SDS011;18065;55.876;9.830;2022-12-17T03:39:47;8.27;;;4.68;;
31442;SDS011;18065;55.876;9.830;2022-12-17T03:42:28;6.50;;;4.80;;
31442;SDS011;18065;55.876;9.830;2022-12-17T03:45:09;6.22;;;4.85;;
31442;SDS011;18065;55.876;9.830;2022-12-17T03:48:01;6.35;;;4.68;;
31442;SDS011;18065;55.876;9.830;2022-12-17T03:50:52;6.72;;;4.75;;
31442;SDS011;18065;55.876;9.830;2022-12-17T03:53:34;6.57;;;4.72;;
31442;SDS011;18065;55.876;9.830;2022-12-17T03:56:15;8.65;;;4.90;;
31442;SDS011;18065;55.876;9.830;2022-12-17T03:58:56;7.10;;;4.68;;
31442;SDS011;18065;55.876;9.830;2022-12-17T04:01:40;6.57;;;4.70;;
31442;SDS011;18065;55.876;9.830;2022-12-17T04:04:23;5.60;;;4.63;;
31442;SDS011;18065;55.876;9.830;2022-12-17T04:07:04;10.32;;;3.78;;
31442;SDS011;18065;55.876;9.830;2022-12-17T04:09:57;6.10;;;4.75;;
31442;SDS011;18065;55.876;9.830;2022-12-17T04:12:38;6.18;;;4.47;;
31442;SDS011;18065;55.876;9.830;2022-12-17T04:15:19;6.45;;;4.80;;
31442;SDS011;18065;55.876;9.830;2022-12-17T04:18:00;5.20;;;4.18;;
31442;SDS011;18065;55.876;9.830;2022-12-17T04:20:44;5.40;;;4.45;;
31442;SDS011;18065;55.876;9.830;2022-12-17T04:23:25;5.80;;;4.18;;
31442;SDS011;18065;55.876;9.830;2022-12-17T04:26:06;6.65;;;4.60;;
31442;SDS011;18065;55.876;9.830;2022-12-17T04:28:51;6.10;;;4.40;;
31442;SDS011;18065;55.876;9.830;2022-12-17T04:31:32;4.70;;;3.85;;
31442;SDS011;18065;55.876;9.830;2022-12-17T04:34:13;7.20;;;4.50;;
31442;SDS011;18065;55.876;9.830;2022-12-17T04:36:57;4.75;;;3.80;;
31442;SDS011;18065;55.876;9.830;2022-12-17T04:39:38;6.13;;;4.38;;
31442;SDS011;18065;55.876;9.830;2022-12-17T04:42:19;6.22;;;4.53;;
31442;SDS011;18065;55.876;9.830;2022-12-17T04:45:00;7.28;;;4.38;;
31442;SDS011;18065;55.876;9.830;2022-12-17T04:47:49;5.22;;;3.92;;
31442;SDS011;18065;55.876;9.830;2022-12-17T04:50:30;5.03;;;3.95;;
31442;SDS011;18065;55.876;9.830;2022-12-17T04:53:14;7.93;;;4.55;;
31442;SDS011;18065;55.876;9.830;2022-12-17T04:55:55;4.95;;;3.90;;
31442;SDS011;18065;55.876;9.830;2022-12-17T04:58:36;4.78;;;4.13;;
31442;SDS011;18065;55.876;9.830;2022-12-17T05:01:17;5.20;;;3.97;;
31442;SDS011;18065;55.876;9.830;2022-12-17T05:03:58;5.55;;;3.88;;
31442;SDS011;18065;55.876;9.830;2022-12-17T05:06:39;6.20;;;4.25;;
31442;SDS011;18065;55.876;9.830;2022-12-17T05:09:23;8.25;;;4.10;;
31442;SDS011;18065;55.876;9.830;2022-12-17T05:12:04;6.22;;;3.75;;
31442;SDS011;18065;55.876;9.830;2022-12-17T05:14:45;11.27;;;3.97;;
31442;SDS011;18065;55.876;9.830;2022-12-17T05:17:32;5.07;;;3.97;;
31442;SDS011;18065;55.876;9.830;2022-12-17T05:20:13;6.45;;;3.70;;
31442;SDS011;18065;55.876;9.830;2022-12-17T05:23:02;10.95;;;4.10;;
31442;SDS011;18065;55.876;9.830;2022-12-17T05:25:47;7.72;;;4.25;;
31442;SDS011;18065;55.876;9.830;2022-12-17T05:28:28;5.30;;;3.40;;
31442;SDS011;18065;55.876;9.830;2022-12-17T05:31:09;5.05;;;3.72;;
31442;SDS011;18065;55.876;9.830;2022-12-17T05:33:50;5.80;;;3.95;;
31442;SDS011;18065;55.876;9.830;2022-12-17T05:36:31;7.90;;;3.55;;
31442;SDS011;18065;55.876;9.830;2022-12-17T05:39:12;5.45;;;3.70;;
31442;SDS011;18065;55.876;9.830;2022-12-17T05:41:56;6.28;;;3.50;;
31442;SDS011;18065;55.876;9.830;2022-12-17T05:44:37;5.90;;;4.32;;
31442;SDS011;18065;55.876;9.830;2022-12-17T05:47:18;4.68;;;3.67;;
31442;SDS011;18065;55.876;9.830;2022-12-17T05:49:59;5.20;;;3.80;;
31442;SDS011;18065;55.876;9.830;2022-12-17T05:52:40;6.60;;;4.20;;
31442;SDS011;18065;55.876;9.830;2022-12-17T05:55:21;6.43;;;3.70;;
31442;SDS011;18065;55.876;9.830;2022-12-17T05:58:06;5.03;;;3.47;;
31442;SDS011;18065;55.876;9.830;2022-12-17T06:00:49;5.95;;;3.92;;
31442;SDS011;18065;55.876;9.830;2022-12-17T06:03:34;5.28;;;3.85;;
31442;SDS011;18065;55.876;9.830;2022-12-17T06:06:15;5.63;;;3.67;;
31442;SDS011;18065;55.876;9.830;2022-12-17T06:08:56;5.97;;;3.65;;
31442;SDS011;18065;55.876;9.830;2022-12-17T06:11:39;5.13;;;3.58;;
31442;SDS011;18065;55.876;9.830;2022-12-17T06:14:23;5.20;;;3.45;;
31442;SDS011;18065;55.876;9.830;2022-12-17T06:17:04;4.90;;;2.95;;
31442;SDS011;18065;55.876;9.830;2022-12-17T06:19:45;5.65;;;3.67;;
31442;SDS011;18065;55.876;9.830;2022-12-17T06:22:26;6.18;;;3.40;;
31442;SDS011;18065;55.876;9.830;2022-12-17T06:25:19;6.85;;;3.70;;
31442;SDS011;18065;55.876;9.830;2022-12-17T06:28:00;3.50;;;3.20;;
31442;SDS011;18065;55.876;9.830;2022-12-17T06:30:48;4.68;;;3.10;;
31442;SDS011;18065;55.876;9.830;2022-12-17T06:33:29;4.80;;;3.40;;
31442;SDS011;18065;55.876;9.830;2022-12-17T06:36:10;5.60;;;3.30;;
31442;SDS011;18065;55.876;9.830;2022-12-17T06:38:51;3.78;;;3.00;;
31442;SDS011;18065;55.876;9.830;2022-12-17T06:41:33;6.78;;;3.38;;
31442;SDS011;18065;55.876;9.830;2022-12-17T06:44:14;7.60;;;3.33;;
31442;SDS011;18065;55.876;9.830;2022-12-17T06:46:57;5.53;;;3.53;;
31442;SDS011;18065;55.876;9.830;2022-12-17T06:49:38;6.47;;;3.63;;
31442;SDS011;18065;55.876;9.830;2022-12-17T06:52:22;10.02;;;3.90;;
31442;SDS011;18065;55.876;9.830;2022-12-17T06:55:08;6.13;;;3.42;;
31442;SDS011;18065;55.876;9.830;2022-12-17T07:00:36;6.05;;;3.47;;
31442;SDS011;18065;55.876;9.830;2022-12-17T07:03:20;6.53;;;3.60;;
31442;SDS011;18065;55.876;9.830;2022-12-17T07:06:01;5.93;;;3.83;;
31442;SDS011;18065;55.876;9.830;2022-12-17T07:08:45;4.55;;;3.17;;
31442;SDS011;18065;55.876;9.830;2022-12-17T07:11:26;6.72;;;3.67;;
31442;SDS011;18065;55.876;9.830;2022-12-17T07:14:07;6.20;;;3.58;;
31442;SDS011;18065;55.876;9.830;2022-12-17T07:16:48;6.85;;;4.00;;
31442;SDS011;18065;55.876;9.830;2022-12-17T07:19:31;5.00;;;3.78;;
31442;SDS011;18065;55.876;9.830;2022-12-17T07:22:13;6.97;;;4.25;;
31442;SDS011;18065;55.876;9.830;2022-12-17T07:24:54;5.93;;;3.50;;
31442;SDS011;18065;55.876;9.830;2022-12-17T07:27:35;6.53;;;3.63;;
31442;SDS011;18065;55.876;9.830;2022-12-17T07:30:16;5.85;;;3.72;;
31442;SDS011;18065;55.876;9.830;2022-12-17T07:32:57;6.68;;;4.35;;
31442;SDS011;18065;55.876;9.830;2022-12-17T07:35:42;6.68;;;3.88;;
31442;SDS011;18065;55.876;9.830;2022-12-17T07:38:25;7.65;;;4.00;;
31442;SDS011;18065;55.876;9.830;2022-12-17T07:41:09;7.20;;;4.47;;
31442;SDS011;18065;55.876;9.830;2022-12-17T07:43:59;7.75;;;4.40;;
31442;SDS011;18065;55.876;9.830;2022-12-17T07:46:40;8.50;;;4.40;;
31442;SDS011;18065;55.876;9.830;2022-12-17T07:49:21;8.38;;;4.63;;
31442;SDS011;18065;55.876;9.830;2022-12-17T07:52:05;6.82;;;4.50;;
31442;SDS011;18065;55.876;9.830;2022-12-17T07:54:46;7.57;;;4.80;;
31442;SDS011;18065;55.876;9.830;2022-12-17T07:57:33;7.32;;;4.30;;
31442;SDS011;18065;55.876;9.830;2022-12-17T08:00:14;6.68;;;4.63;;
31442;SDS011;18065;55.876;9.830;2022-12-17T08:02:56;7.22;;;4.22;;
31442;SDS011;18065;55.876;9.830;2022-12-17T08:05:37;7.38;;;4.80;;
31442;SDS011;18065;55.876;9.830;2022-12-17T08:08:21;7.55;;;4.20;;
31442;SDS011;18065;55.876;9.830;2022-12-17T08:11:02;8.65;;;4.68;;
31442;SDS011;18065;55.876;9.830;2022-12-17T08:13:43;12.45;;;5.03;;
31442;SDS011;18065;55.876;9.830;2022-12-17T08:16:24;12.15;;;4.68;;
31442;SDS011;18065;55.876;9.830;2022-12-17T08:19:08;9.88;;;4.10;;
31442;SDS011;18065;55.876;9.830;2022-12-17T08:21:49;8.80;;;5.07;;
31442;SDS011;18065;55.876;9.830;2022-12-17T08:24:33;8.18;;;4.65;;
31442;SDS011;18065;55.876;9.830;2022-12-17T08:27:16;11.02;;;4.47;;
31442;SDS011;18065;55.876;9.830;2022-12-17T08:29:57;10.13;;;5.68;;
31442;SDS011;18065;55.876;9.830;2022-12-17T08:32:38;14.25;;;6.15;;
31442;SDS011;18065;55.876;9.830;2022-12-17T08:35:19;12.75;;;6.13;;
31442;SDS011;18065;55.876;9.830;2022-12-17T08:38:00;20.50;;;7.38;;
31442;SDS011;18065;55.876;9.830;2022-12-17T08:40:44;12.98;;;6.85;;
31442;SDS011;18065;55.876;9.830;2022-12-17T08:43:26;19.23;;;8.18;;
31442;SDS011;18065;55.876;9.830;2022-12-17T08:46:07;13.40;;;7.28;;
31442;SDS011;18065;55.876;9.830;2022-12-17T08:48:48;14.98;;;7.72;;
31442;SDS011;18065;55.876;9.830;2022-12-17T08:51:29;15.40;;;7.90;;
31442;SDS011;18065;55.876;9.830;2022-12-17T08:54:10;16.65;;;8.18;;
31442;SDS011;18065;55.876;9.830;2022-12-17T08:56:54;18.77;;;8.48;;
31442;SDS011;18065;55.876;9.830;2022-12-17T08:59:35;17.98;;;8.93;;
31442;SDS011;18065;55.876;9.830;2022-12-17T09:02:16;15.35;;;7.93;;
31442;SDS011;18065;55.876;9.830;2022-12-17T09:04:57;15.88;;;8.80;;
31442;SDS011;18065;55.876;9.830;2022-12-17T09:07:38;17.02;;;8.80;;
31442;SDS011;18065;55.876;9.830;2022-12-17T09:10:19;19.85;;;8.70;;
31442;SDS011;18065;55.876;9.830;2022-12-17T09:13:03;18.58;;;9.52;;
31442;SDS011;18065;55.876;9.830;2022-12-17T09:18:30;21.30;;;9.13;;
31442;SDS011;18065;55.876;9.830;2022-12-17T09:21:11;17.63;;;9.48;;
31442;SDS011;18065;55.876;9.830;2022-12-17T09:23:52;19.17;;;10.85;;
31442;SDS011;18065;55.876;9.830;2022-12-17T09:26:33;18.08;;;9.40;;
31442;SDS011;18065;55.876;9.830;2022-12-17T09:29:18;16.98;;;9.45;;
31442;SDS011;18065;55.876;9.830;2022-12-17T09:31:59;21.67;;;10.15;;
31442;SDS011;18065;55.876;9.830;2022-12-17T09:34:40;23.05;;;10.07;;
31442;SDS011;18065;55.876;9.830;2022-12-17T09:37:21;21.30;;;9.95;;
31442;SDS011;18065;55.876;9.830;2022-12-17T09:40:02;21.27;;;9.70;;
31442;SDS011;18065;55.876;9.830;2022-12-17T09:42:48;18.15;;;9.57;;
31442;SDS011;18065;55.876;9.830;2022-12-17T09:45:39;19.27;;;9.80;;
31442;SDS011;18065;55.876;9.830;2022-12-17T09:48:35;17.33;;;9.70;;
31442;SDS011;18065;55.876;9.830;2022-12-17T09:51:23;17.25;;;9.43;;
31442;SDS011;18065;55.876;9.830;2022-12-17T09:54:09;17.30;;;9.70;;
31442;SDS011;18065;55.876;9.830;2022-12-17T09:56:55;20.08;;;10.20;;
31442;SDS011;18065;55.876;9.830;2022-12-17T09:59:39;17.95;;;9.32;;
31442;SDS011;18065;55.876;9.830;2022-12-17T10:05:14;17.08;;;9.88;;
31442;SDS011;18065;55.876;9.830;2022-12-17T10:07:58;17.60;;;9.93;;
31442;SDS011;18065;55.876;9.830;2022-12-17T10:10:42;20.05;;;9.52;;
31442;SDS011;18065;55.876;9.830;2022-12-17T10:13:25;18.25;;;9.18;;
31442;SDS011;18065;55.876;9.830;2022-12-17T10:16:24;19.38;;;9.55;;
31442;SDS011;18065;55.876;9.830;2022-12-17T10:22:07;15.75;;;9.25;;
31442;SDS011;18065;55.876;9.830;2022-12-17T10:24:49;16.65;;;8.93;;
31442;SDS011;18065;55.876;9.830;2022-12-17T10:27:30;16.13;;;8.73;;
31442;SDS011;18065;55.876;9.830;2022-12-17T10:30:13;16.20;;;9.13;;
31442;SDS011;18065;55.876;9.830;2022-12-17T10:32:55;17.70;;;9.63;;
31442;SDS011;18065;55.876;9.830;2022-12-17T10:35:39;16.10;;;8.40;;
31442;SDS011;18065;55.876;9.830;2022-12-17T10:38:26;15.25;;;8.80;;
31442;SDS011;18065;55.876;9.830;2022-12-17T10:41:18;15.38;;;8.65;;
31442;SDS011;18065;55.876;9.830;2022-12-17T10:44:00;16.98;;;9.00;;
31442;SDS011;18065;55.876;9.830;2022-12-17T10:46:41;12.30;;;7.80;;
31442;SDS011;18065;55.876;9.830;2022-12-17T10:49:23;15.32;;;7.95;;
31442;SDS011;18065;55.876;9.830;2022-12-17T10:52:13;27.80;;;9.82;;
31442;SDS011;18065;55.876;9.830;2022-12-17T10:55:17;19.38;;;8.38;;
31442;SDS011;18065;55.876;9.830;2022-12-17T10:58:01;13.85;;;7.65;;
31442;SDS011;18065;55.876;9.830;2022-12-17T11:00:42;13.00;;;7.88;;
31442;SDS011;18065;55.876;9.830;2022-12-17T11:03:31;16.33;;;8.02;;
31442;SDS011;18065;55.876;9.830;2022-12-17T11:06:19;15.00;;;6.88;;
31442;SDS011;18065;55.876;9.830;2022-12-17T11:09:07;15.00;;;8.27;;
31442;SDS011;18065;55.876;9.830;2022-12-17T11:11:58;14.65;;;8.18;;
31442;SDS011;18065;55.876;9.830;2022-12-17T11:14:43;13.35;;;7.53;;
31442;SDS011;18065;55.876;9.830;2022-12-17T11:17:30;13.93;;;8.13;;
31442;SDS011;18065;55.876;9.830;2022-12-17T11:20:16;13.32;;;7.38;;
31442;SDS011;18065;55.876;9.830;2022-12-17T11:23:03;13.65;;;7.78;;
31442;SDS011;18065;55.876;9.830;2022-12-17T11:25:49;14.27;;;7.20;;
31442;SDS011;18065;55.876;9.830;2022-12-17T11:28:35;13.00;;;6.97;;
31442;SDS011;18065;55.876;9.830;2022-12-17T11:31:25;16.50;;;7.60;;
31442;SDS011;18065;55.876;9.830;2022-12-17T11:34:19;14.82;;;7.03;;
31442;SDS011;18065;55.876;9.830;2022-12-17T11:37:12;10.57;;;7.05;;
31442;SDS011;18065;55.876;9.830;2022-12-17T11:39:58;13.35;;;7.13;;
31442;SDS011;18065;55.876;9.830;2022-12-17T11:45:38;13.98;;;6.40;;
31442;SDS011;18065;55.876;9.830;2022-12-17T11:48:27;16.35;;;7.65;;
31442;SDS011;18065;55.876;9.830;2022-12-17T11:51:22;13.60;;;7.00;;
31442;SDS011;18065;55.876;9.830;2022-12-17T11:54:08;11.45;;;6.25;;
31442;SDS011;18065;55.876;9.830;2022-12-17T11:57:00;10.70;;;6.93;;
31442;SDS011;18065;55.876;9.830;2022-12-17T11:59:58;12.75;;;6.55;;
31442;SDS011;18065;55.876;9.830;2022-12-17T12:02:44;11.68;;;6.70;;
31442;SDS011;18065;55.876;9.830;2022-12-17T12:05:34;10.27;;;6.10;;
31442;SDS011;18065;55.876;9.830;2022-12-17T12:08:26;13.10;;;6.18;;
31442;SDS011;18065;55.876;9.830;2022-12-17T12:11:10;12.43;;;6.30;;
31442;SDS011;18065;55.876;9.830;2022-12-17T12:14:07;10.43;;;6.20;;
31442;SDS011;18065;55.876;9.830;2022-12-17T12:17:01;11.88;;;6.70;;
31442;SDS011;18065;55.876;9.830;2022-12-17T12:19:50;11.20;;;6.25;;
31442;SDS011;18065;55.876;9.830;2022-12-17T12:22:52;10.43;;;5.75;;
31442;SDS011;18065;55.876;9.830;2022-12-17T12:25:52;10.88;;;5.68;;
31442;SDS011;18065;55.876;9.830;2022-12-17T12:28:45;13.82;;;6.45;;
31442;SDS011;18065;55.876;9.830;2022-12-17T12:31:34;11.75;;;6.00;;
31442;SDS011;18065;55.876;9.830;2022-12-17T12:34:26;8.80;;;5.45;;
31442;SDS011;18065;55.876;9.830;2022-12-17T12:37:11;10.32;;;5.63;;
31442;SDS011;18065;55.876;9.830;2022-12-17T12:39:57;11.13;;;6.03;;
31442;SDS011;18065;55.876;9.830;2022-12-17T12:42:55;8.80;;;5.63;;
31442;SDS011;18065;55.876;9.830;2022-12-17T12:45:40;10.77;;;5.53;;
31442;SDS011;18065;55.876;9.830;2022-12-17T12:48:28;10.38;;;5.30;;
31442;SDS011;18065;55.876;9.830;2022-12-17T12:51:21;12.13;;;5.50;;
31442;SDS011;18065;55.876;9.830;2022-12-17T12:54:20;15.25;;;5.65;;
31442;SDS011;18065;55.876;9.830;2022-12-17T13:00:20;10.20;;;5.18;;
31442;SDS011;18065;55.876;9.830;2022-12-17T13:03:05;7.95;;;5.20;;
31442;SDS011;18065;55.876;9.830;2022-12-17T13:05:47;11.57;;;5.40;;
31442;SDS011;18065;55.876;9.830;2022-12-17T13:08:22;9.45;;;5.13;;
31442;SDS011;18065;55.876;9.830;2022-12-17T13:10:52;9.77;;;5.30;;
31442;SDS011;18065;55.876;9.830;2022-12-17T13:13:23;7.43;;;5.25;;
31442;SDS011;18065;55.876;9.830;2022-12-17T13:16:00;18.60;;;5.10;;
31442;SDS011;18065;55.876;9.830;2022-12-17T13:18:42;9.03;;;5.30;;
31442;SDS011;18065;55.876;9.830;2022-12-17T13:21:23;7.05;;;4.85;;
31442;SDS011;18065;55.876;9.830;2022-12-17T13:23:56;8.35;;;4.85;;
31442;SDS011;18065;55.876;9.830;2022-12-17T13:26:29;7.50;;;4.57;;
31442;SDS011;18065;55.876;9.830;2022-12-17T13:29:10;10.52;;;5.68;;
31442;SDS011;18065;55.876;9.830;2022-12-17T13:31:47;10.43;;;5.05;;
31442;SDS011;18065;55.876;9.830;2022-12-17T13:34:28;9.55;;;4.97;;
31442;SDS011;18065;55.876;9.830;2022-12-17T13:37:16;10.05;;;5.15;;
31442;SDS011;18065;55.876;9.830;2022-12-17T13:39:58;7.88;;;4.57;;
31442;SDS011;18065;55.876;9.830;2022-12-17T13:42:38;10.48;;;4.75;;
31442;SDS011;18065;55.876;9.830;2022-12-17T13:45:11;8.07;;;4.85;;
31442;SDS011;18065;55.876;9.830;2022-12-17T13:47:42;9.43;;;4.60;;
31442;SDS011;18065;55.876;9.830;2022-12-17T13:50:19;7.75;;;4.47;;
31442;SDS011;18065;55.876;9.830;2022-12-17T13:52:49;8.20;;;4.47;;
31442;SDS011;18065;55.876;9.830;2022-12-17T13:55:21;11.75;;;4.25;;
31442;SDS011;18065;55.876;9.830;2022-12-17T13:57:53;6.85;;;4.05;;
31442;SDS011;18065;55.876;9.830;2022-12-17T14:00:23;9.68;;;4.72;;
31442;SDS011;18065;55.876;9.830;2022-12-17T14:02:53;12.85;;;4.60;;
31442;SDS011;18065;55.876;9.830;2022-12-17T14:05:23;7.50;;;4.85;;
31442;SDS011;18065;55.876;9.830;2022-12-17T14:07:53;11.73;;;4.20;;
31442;SDS011;18065;55.876;9.830;2022-12-17T14:10:34;9.27;;;4.55;;
31442;SDS011;18065;55.876;9.830;2022-12-17T14:13:04;10.27;;;4.30;;
31442;SDS011;18065;55.876;9.830;2022-12-17T14:15:32;6.65;;;4.10;;
31442;SDS011;18065;55.876;9.830;2022-12-17T14:18:01;8.45;;;4.65;;
31442;SDS011;18065;55.876;9.830;2022-12-17T14:20:31;7.65;;;5.03;;
31442;SDS011;18065;55.876;9.830;2022-12-17T14:23:03;6.70;;;4.03;;
31442;SDS011;18065;55.876;9.830;2022-12-17T14:25:36;8.82;;;4.18;;
31442;SDS011;18065;55.876;9.830;2022-12-17T14:28:18;9.10;;;4.13;;
31442;SDS011;18065;55.876;9.830;2022-12-17T14:30:49;6.38;;;4.47;;
31442;SDS011;18065;55.876;9.830;2022-12-17T14:33:26;7.70;;;4.22;;
31442;SDS011;18065;55.876;9.830;2022-12-17T14:35:56;6.07;;;3.85;;
31442;SDS011;18065;55.876;9.830;2022-12-17T14:38:27;8.90;;;4.28;;
31442;SDS011;18065;55.876;9.830;2022-12-17T14:41:02;5.03;;;3.90;;
31442;SDS011;18065;55.876;9.830;2022-12-17T14:43:55;8.90;;;4.22;;
31442;SDS011;18065;55.876;9.830;2022-12-17T14:46:26;5.38;;;3.95;;
31442;SDS011;18065;55.876;9.830;2022-12-17T14:48:56;7.22;;;3.83;;
31442;SDS011;18065;55.876;9.830;2022-12-17T14:51:31;6.45;;;3.85;;
31442;SDS011;18065;55.876;9.830;2022-12-17T14:54:05;9.55;;;4.15;;
31442;SDS011;18065;55.876;9.830;2022-12-17T14:56:46;5.45;;;3.30;;
31442;SDS011;18065;55.876;9.830;2022-12-17T14:59:29;7.63;;;3.77;;
31442;SDS011;18065;55.876;9.830;2022-12-17T15:01:59;7.15;;;4.00;;
31442;SDS011;18065;55.876;9.830;2022-12-17T15:04:31;5.45;;;3.60;;
31442;SDS011;18065;55.876;9.830;2022-12-17T15:07:00;7.13;;;4.20;;
31442;SDS011;18065;55.876;9.830;2022-12-17T15:09:29;5.57;;;3.70;;
31442;SDS011;18065;55.876;9.830;2022-12-17T15:12:05;8.30;;;4.00;;
31442;SDS011;18065;55.876;9.830;2022-12-17T15:14:33;7.28;;;4.03;;
31442;SDS011;18065;55.876;9.830;2022-12-17T15:17:02;7.15;;;4.20;;
31442;SDS011;18065;55.876;9.830;2022-12-17T15:19:31;6.78;;;4.03;;
31442;SDS011;18065;55.876;9.830;2022-12-17T15:21:59;5.40;;;3.78;;
31442;SDS011;18065;55.876;9.830;2022-12-17T15:24:30;6.75;;;4.00;;
31442;SDS011;18065;55.876;9.830;2022-12-17T15:26:59;6.15;;;3.85;;
31442;SDS011;18065;55.876;9.830;2022-12-17T15:29:30;6.45;;;3.92;;
31442;SDS011;18065;55.876;9.830;2022-12-17T15:31:59;4.47;;;3.28;;
31442;SDS011;18065;55.876;9.830;2022-12-17T15:34:28;6.25;;;3.38;;
31442;SDS011;18065;55.876;9.830;2022-12-17T15:36:56;5.43;;;3.40;;
31442;SDS011;18065;55.876;9.830;2022-12-17T15:39:25;6.57;;;3.78;;
31442;SDS011;18065;55.876;9.830;2022-12-17T15:41:54;8.13;;;4.05;;
31442;SDS011;18065;55.876;9.830;2022-12-17T15:44:37;5.22;;;3.88;;
31442;SDS011;18065;55.876;9.830;2022-12-17T15:47:06;5.88;;;3.88;;
31442;SDS011;18065;55.876;9.830;2022-12-17T15:49:35;5.00;;;3.42;;
31442;SDS011;18065;55.876;9.830;2022-12-17T15:52:04;4.55;;;3.58;;
31442;SDS011;18065;55.876;9.830;2022-12-17T15:54:33;5.85;;;3.97;;
31442;SDS011;18065;55.876;9.830;2022-12-17T15:57:02;5.30;;;3.97;;
31442;SDS011;18065;55.876;9.830;2022-12-17T15:59:31;6.35;;;3.58;;
31442;SDS011;18065;55.876;9.830;2022-12-17T16:02:02;4.82;;;3.25;;
31442;SDS011;18065;55.876;9.830;2022-12-17T16:04:31;4.70;;;3.80;;
31442;SDS011;18065;55.876;9.830;2022-12-17T16:06:59;5.55;;;4.10;;
31442;SDS011;18065;55.876;9.830;2022-12-17T16:09:28;7.05;;;3.90;;
31442;SDS011;18065;55.876;9.830;2022-12-17T16:11:57;4.70;;;3.42;;
31442;SDS011;18065;55.876;9.830;2022-12-17T16:14:26;6.82;;;4.35;;
31442;SDS011;18065;55.876;9.830;2022-12-17T16:16:54;6.55;;;3.58;;
31442;SDS011;18065;55.876;9.830;2022-12-17T16:19:26;4.97;;;3.50;;
31442;SDS011;18065;55.876;9.830;2022-12-17T16:21:54;4.93;;;3.50;;
31442;SDS011;18065;55.876;9.830;2022-12-17T16:24:23;6.93;;;4.15;;
31442;SDS011;18065;55.876;9.830;2022-12-17T16:26:52;5.40;;;3.90;;
31442;SDS011;18065;55.876;9.830;2022-12-17T16:29:20;6.28;;;3.88;;
31442;SDS011;18065;55.876;9.830;2022-12-17T16:31:49;4.85;;;3.67;;
31442;SDS011;18065;55.876;9.830;2022-12-17T16:34:18;5.05;;;3.60;;
31442;SDS011;18065;55.876;9.830;2022-12-17T16:36:49;5.90;;;4.03;;